sensor_id;sensor_type;location;lat;lon;timestamp;P1;durP1;ratioP1;P2;durP2;ratioP2
66052;SDS011;52833;45.112;39.556;2022-08-20T00:01:05;15.55;;;5.38;;
66052;SDS011;52833;45.112;39.556;2022-08-20T00:03:34;12.18;;;5.47;;
66052;SDS011;52833;45.112;39.556;2022-08-20T00:06:08;11.48;;;5.43;;
66052;SDS011;52833;45.112;39.556;2022-08-20T00:08:39;10.82;;;5.80;;
66052;SDS011;52833;45.112;39.556;2022-08-20T00:11:08;13.60;;;5.60;;
66052;SDS011;52833;45.112;39.556;2022-08-20T00:13:38;9.93;;;5.60;;
66052;SDS011;52833;45.112;39.556;2022-08-20T00:16:07;11.00;;;5.45;;
66052;SDS011;52833;45.112;39.556;2022-08-20T00:18:35;14.70;;;5.60;;
66052;SDS011;52833;45.112;39.556;2022-08-20T00:21:03;18.83;;;5.82;;
66052;SDS011;52833;45.112;39.556;2022-08-20T00:23:39;11.35;;;5.88;;
66052;SDS011;52833;45.112;39.556;2022-08-20T00:26:08;13.80;;;5.65;;
66052;SDS011;52833;45.112;39.556;2022-08-20T00:28:36;17.25;;;5.95;;
66052;SDS011;52833;45.112;39.556;2022-08-20T00:31:05;11.13;;;5.43;;
66052;SDS011;52833;45.112;39.556;2022-08-20T00:33:38;17.77;;;5.60;;
66052;SDS011;52833;45.112;39.556;2022-08-20T00:36:05;11.77;;;5.55;;
66052;SDS011;52833;45.112;39.556;2022-08-20T00:38:35;14.15;;;6.10;;
66052;SDS011;52833;45.112;39.556;2022-08-20T00:41:03;16.70;;;6.22;;
66052;SDS011;52833;45.112;39.556;2022-08-20T00:43:39;17.52;;;6.25;;
66052;SDS011;52833;45.112;39.556;2022-08-20T00:46:15;28.70;;;6.18;;
66052;SDS011;52833;45.112;39.556;2022-08-20T00:48:51;14.20;;;5.53;;
66052;SDS011;52833;45.112;39.556;2022-08-20T00:53:57;16.20;;;6.00;;
66052;SDS011;52833;45.112;39.556;2022-08-20T00:56:30;9.57;;;5.50;;
66052;SDS011;52833;45.112;39.556;2022-08-20T00:58:58;16.58;;;6.32;;
66052;SDS011;52833;45.112;39.556;2022-08-20T01:01:25;12.00;;;5.72;;
66052;SDS011;52833;45.112;39.556;2022-08-20T01:03:53;13.40;;;6.20;;
66052;SDS011;52833;45.112;39.556;2022-08-20T01:06:21;19.23;;;6.22;;
66052;SDS011;52833;45.112;39.556;2022-08-20T01:08:49;14.85;;;6.22;;
66052;SDS011;52833;45.112;39.556;2022-08-20T01:11:16;13.27;;;6.53;;
66052;SDS011;52833;45.112;39.556;2022-08-20T01:13:47;12.93;;;6.88;;
66052;SDS011;52833;45.112;39.556;2022-08-20T01:16:16;12.25;;;6.35;;
66052;SDS011;52833;45.112;39.556;2022-08-20T01:18:48;14.70;;;6.20;;
66052;SDS011;52833;45.112;39.556;2022-08-20T01:24:25;10.88;;;6.38;;
66052;SDS011;52833;45.112;39.556;2022-08-20T01:27:00;13.25;;;5.70;;
66052;SDS011;52833;45.112;39.556;2022-08-20T01:29:33;18.10;;;6.38;;
66052;SDS011;52833;45.112;39.556;2022-08-20T01:32:04;15.85;;;6.00;;
66052;SDS011;52833;45.112;39.556;2022-08-20T01:34:31;12.80;;;5.97;;
66052;SDS011;52833;45.112;39.556;2022-08-20T01:36:58;14.18;;;6.88;;
66052;SDS011;52833;45.112;39.556;2022-08-20T01:39:28;10.73;;;5.57;;
66052;SDS011;52833;45.112;39.556;2022-08-20T01:42:06;14.77;;;6.78;;
66052;SDS011;52833;45.112;39.556;2022-08-20T01:44:45;10.60;;;6.65;;
66052;SDS011;52833;45.112;39.556;2022-08-20T01:47:20;10.98;;;6.10;;
66052;SDS011;52833;45.112;39.556;2022-08-20T01:49:51;13.48;;;6.28;;
66052;SDS011;52833;45.112;39.556;2022-08-20T01:52:25;12.25;;;5.85;;
66052;SDS011;52833;45.112;39.556;2022-08-20T01:55:12;9.77;;;6.22;;
66052;SDS011;52833;45.112;39.556;2022-08-20T01:57:40;14.98;;;6.25;;
66052;SDS011;52833;45.112;39.556;2022-08-20T02:00:08;16.98;;;7.15;;
66052;SDS011;52833;45.112;39.556;2022-08-20T02:02:38;8.85;;;6.20;;
66052;SDS011;52833;45.112;39.556;2022-08-20T02:05:06;11.52;;;6.28;;
66052;SDS011;52833;45.112;39.556;2022-08-20T02:07:33;14.68;;;6.18;;
66052;SDS011;52833;45.112;39.556;2022-08-20T02:10:01;13.85;;;7.45;;
66052;SDS011;52833;45.112;39.556;2022-08-20T02:12:27;18.88;;;7.30;;
66052;SDS011;52833;45.112;39.556;2022-08-20T02:14:54;14.90;;;6.68;;
66052;SDS011;52833;45.112;39.556;2022-08-20T02:17:23;9.48;;;6.18;;
66052;SDS011;52833;45.112;39.556;2022-08-20T02:22:41;17.27;;;6.55;;
66052;SDS011;52833;45.112;39.556;2022-08-20T02:25:06;20.63;;;7.25;;
66052;SDS011;52833;45.112;39.556;2022-08-20T02:27:34;14.25;;;7.80;;
66052;SDS011;52833;45.112;39.556;2022-08-20T02:30:03;16.15;;;7.30;;
66052;SDS011;52833;45.112;39.556;2022-08-20T02:32:34;40.70;;;9.23;;
66052;SDS011;52833;45.112;39.556;2022-08-20T02:35:02;12.77;;;6.47;;
66052;SDS011;52833;45.112;39.556;2022-08-20T02:37:34;17.48;;;6.50;;
66052;SDS011;52833;45.112;39.556;2022-08-20T02:40:03;26.10;;;7.25;;
66052;SDS011;52833;45.112;39.556;2022-08-20T02:42:33;28.53;;;7.30;;
66052;SDS011;52833;45.112;39.556;2022-08-20T02:45:01;8.57;;;6.18;;
66052;SDS011;52833;45.112;39.556;2022-08-20T02:47:28;16.50;;;6.70;;
66052;SDS011;52833;45.112;39.556;2022-08-20T02:49:55;17.13;;;7.00;;
66052;SDS011;52833;45.112;39.556;2022-08-20T02:52:24;25.25;;;7.63;;
66052;SDS011;52833;45.112;39.556;2022-08-20T02:54:51;21.77;;;7.53;;
66052;SDS011;52833;45.112;39.556;2022-08-20T02:57:18;24.33;;;7.68;;
66052;SDS011;52833;45.112;39.556;2022-08-20T02:59:46;18.63;;;7.07;;
66052;SDS011;52833;45.112;39.556;2022-08-20T03:02:13;31.77;;;7.13;;
66052;SDS011;52833;45.112;39.556;2022-08-20T03:04:41;19.05;;;7.40;;
66052;SDS011;52833;45.112;39.556;2022-08-20T03:07:08;14.95;;;7.32;;
66052;SDS011;52833;45.112;39.556;2022-08-20T03:09:35;27.67;;;8.73;;
66052;SDS011;52833;45.112;39.556;2022-08-20T03:12:03;35.55;;;8.18;;
66052;SDS011;52833;45.112;39.556;2022-08-20T03:14:33;33.67;;;12.18;;
66052;SDS011;52833;45.112;39.556;2022-08-20T03:17:00;16.13;;;7.40;;
66052;SDS011;52833;45.112;39.556;2022-08-20T03:19:28;13.38;;;7.97;;
66052;SDS011;52833;45.112;39.556;2022-08-20T03:21:54;32.55;;;9.13;;
66052;SDS011;52833;45.112;39.556;2022-08-20T03:24:21;65.72;;;10.55;;
66052;SDS011;52833;45.112;39.556;2022-08-20T03:26:47;27.90;;;8.73;;
66052;SDS011;52833;45.112;39.556;2022-08-20T03:29:16;29.15;;;8.30;;
66052;SDS011;52833;45.112;39.556;2022-08-20T03:31:42;28.95;;;8.30;;
66052;SDS011;52833;45.112;39.556;2022-08-20T03:34:09;17.45;;;10.18;;
66052;SDS011;52833;45.112;39.556;2022-08-20T03:36:37;12.73;;;6.93;;
66052;SDS011;52833;45.112;39.556;2022-08-20T03:39:05;13.95;;;8.00;;
66052;SDS011;52833;45.112;39.556;2022-08-20T03:41:37;15.88;;;7.03;;
66052;SDS011;52833;45.112;39.556;2022-08-20T03:44:04;37.05;;;9.10;;
66052;SDS011;52833;45.112;39.556;2022-08-20T03:46:32;35.55;;;9.65;;
66052;SDS011;52833;45.112;39.556;2022-08-20T03:49:00;18.77;;;8.18;;
66052;SDS011;52833;45.112;39.556;2022-08-20T03:51:28;18.95;;;7.53;;
66052;SDS011;52833;45.112;39.556;2022-08-20T03:53:55;16.75;;;7.93;;
66052;SDS011;52833;45.112;39.556;2022-08-20T03:56:22;18.50;;;6.93;;
66052;SDS011;52833;45.112;39.556;2022-08-20T03:58:48;15.10;;;7.35;;
66052;SDS011;52833;45.112;39.556;2022-08-20T04:01:15;21.50;;;8.10;;
66052;SDS011;52833;45.112;39.556;2022-08-20T04:03:42;17.52;;;7.68;;
66052;SDS011;52833;45.112;39.556;2022-08-20T04:06:10;13.65;;;6.93;;
66052;SDS011;52833;45.112;39.556;2022-08-20T04:08:36;12.25;;;7.03;;
66052;SDS011;52833;45.112;39.556;2022-08-20T04:11:05;13.10;;;7.38;;
66052;SDS011;52833;45.112;39.556;2022-08-20T04:13:32;13.55;;;7.63;;
66052;SDS011;52833;45.112;39.556;2022-08-20T04:16:02;19.10;;;7.25;;
66052;SDS011;52833;45.112;39.556;2022-08-20T04:18:34;13.32;;;8.27;;
66052;SDS011;52833;45.112;39.556;2022-08-20T04:21:02;16.88;;;7.95;;
66052;SDS011;52833;45.112;39.556;2022-08-20T04:23:30;19.50;;;7.78;;
66052;SDS011;52833;45.112;39.556;2022-08-20T04:25:57;16.33;;;7.50;;
66052;SDS011;52833;45.112;39.556;2022-08-20T04:28:26;14.73;;;7.72;;
66052;SDS011;52833;45.112;39.556;2022-08-20T04:30:54;22.73;;;8.30;;
66052;SDS011;52833;45.112;39.556;2022-08-20T04:33:23;12.65;;;8.07;;
66052;SDS011;52833;45.112;39.556;2022-08-20T04:35:51;11.38;;;7.18;;
66052;SDS011;52833;45.112;39.556;2022-08-20T04:38:19;18.65;;;8.38;;
66052;SDS011;52833;45.112;39.556;2022-08-20T04:40:47;28.15;;;9.35;;
66052;SDS011;52833;45.112;39.556;2022-08-20T04:43:25;18.15;;;8.15;;
66052;SDS011;52833;45.112;39.556;2022-08-20T04:46:06;17.67;;;9.60;;
66052;SDS011;52833;45.112;39.556;2022-08-20T04:48:37;17.08;;;8.65;;
66052;SDS011;52833;45.112;39.556;2022-08-20T04:51:07;19.58;;;8.68;;
66052;SDS011;52833;45.112;39.556;2022-08-20T04:53:34;11.57;;;7.20;;
66052;SDS011;52833;45.112;39.556;2022-08-20T04:56:01;22.55;;;7.63;;
66052;SDS011;52833;45.112;39.556;2022-08-20T04:58:33;17.67;;;8.35;;
66052;SDS011;52833;45.112;39.556;2022-08-20T05:01:04;18.65;;;7.45;;
66052;SDS011;52833;45.112;39.556;2022-08-20T05:06:00;18.48;;;8.43;;
66052;SDS011;52833;45.112;39.556;2022-08-20T05:08:26;21.58;;;7.97;;
66052;SDS011;52833;45.112;39.556;2022-08-20T05:10:55;39.15;;;8.00;;
66052;SDS011;52833;45.112;39.556;2022-08-20T05:13:23;21.27;;;7.97;;
66052;SDS011;52833;45.112;39.556;2022-08-20T05:15:51;14.23;;;7.97;;
66052;SDS011;52833;45.112;39.556;2022-08-20T05:18:20;17.92;;;7.95;;
66052;SDS011;52833;45.112;39.556;2022-08-20T05:20:49;21.77;;;9.97;;
66052;SDS011;52833;45.112;39.556;2022-08-20T05:23:17;63.00;;;21.75;;
66052;SDS011;52833;45.112;39.556;2022-08-20T05:25:46;160.82;;;40.17;;
66052;SDS011;52833;45.112;39.556;2022-08-20T05:28:20;18.13;;;9.23;;
66052;SDS011;52833;45.112;39.556;2022-08-20T05:30:49;32.35;;;9.45;;
66052;SDS011;52833;45.112;39.556;2022-08-20T05:33:18;22.70;;;9.02;;
66052;SDS011;52833;45.112;39.556;2022-08-20T05:35:47;14.63;;;8.27;;
66052;SDS011;52833;45.112;39.556;2022-08-20T05:38:18;14.00;;;8.30;;
66052;SDS011;52833;45.112;39.556;2022-08-20T05:40:48;16.65;;;7.90;;
66052;SDS011;52833;45.112;39.556;2022-08-20T05:43:15;14.52;;;7.75;;
66052;SDS011;52833;45.112;39.556;2022-08-20T05:45:43;13.88;;;7.38;;
66052;SDS011;52833;45.112;39.556;2022-08-20T05:48:15;17.50;;;7.40;;
66052;SDS011;52833;45.112;39.556;2022-08-20T05:53:10;13.60;;;8.57;;
66052;SDS011;52833;45.112;39.556;2022-08-20T05:55:38;16.13;;;7.70;;
66052;SDS011;52833;45.112;39.556;2022-08-20T05:58:05;16.40;;;7.82;;
66052;SDS011;52833;45.112;39.556;2022-08-20T06:00:34;16.48;;;6.95;;
66052;SDS011;52833;45.112;39.556;2022-08-20T06:03:01;11.90;;;7.55;;
66052;SDS011;52833;45.112;39.556;2022-08-20T06:05:46;17.33;;;7.05;;
66052;SDS011;52833;45.112;39.556;2022-08-20T06:08:12;15.52;;;7.05;;
66052;SDS011;52833;45.112;39.556;2022-08-20T06:10:39;15.88;;;7.75;;
66052;SDS011;52833;45.112;39.556;2022-08-20T06:13:06;20.20;;;8.50;;
66052;SDS011;52833;45.112;39.556;2022-08-20T06:15:33;17.23;;;7.13;;
66052;SDS011;52833;45.112;39.556;2022-08-20T06:18:00;18.10;;;7.32;;
66052;SDS011;52833;45.112;39.556;2022-08-20T06:20:27;20.85;;;7.65;;
66052;SDS011;52833;45.112;39.556;2022-08-20T06:22:54;19.75;;;10.32;;
66052;SDS011;52833;45.112;39.556;2022-08-20T06:25:21;16.63;;;7.25;;
66052;SDS011;52833;45.112;39.556;2022-08-20T06:27:47;16.83;;;8.90;;
66052;SDS011;52833;45.112;39.556;2022-08-20T06:30:14;19.50;;;8.23;;
66052;SDS011;52833;45.112;39.556;2022-08-20T06:32:42;20.88;;;11.05;;
66052;SDS011;52833;45.112;39.556;2022-08-20T06:35:09;31.50;;;10.65;;
66052;SDS011;52833;45.112;39.556;2022-08-20T06:37:38;19.13;;;9.85;;
66052;SDS011;52833;45.112;39.556;2022-08-20T06:40:07;19.15;;;9.88;;
66052;SDS011;52833;45.112;39.556;2022-08-20T06:42:36;26.05;;;8.50;;
66052;SDS011;52833;45.112;39.556;2022-08-20T06:45:12;18.27;;;9.23;;
66052;SDS011;52833;45.112;39.556;2022-08-20T06:47:41;15.13;;;7.60;;
66052;SDS011;52833;45.112;39.556;2022-08-20T06:50:10;20.92;;;8.20;;
66052;SDS011;52833;45.112;39.556;2022-08-20T06:52:39;16.42;;;7.93;;
66052;SDS011;52833;45.112;39.556;2022-08-20T06:55:07;20.17;;;7.78;;
66052;SDS011;52833;45.112;39.556;2022-08-20T06:57:36;16.75;;;8.57;;
66052;SDS011;52833;45.112;39.556;2022-08-20T07:00:03;17.42;;;9.63;;
66052;SDS011;52833;45.112;39.556;2022-08-20T07:02:31;16.98;;;8.10;;
66052;SDS011;52833;45.112;39.556;2022-08-20T07:04:58;14.02;;;7.85;;
66052;SDS011;52833;45.112;39.556;2022-08-20T07:07:25;13.93;;;8.63;;
66052;SDS011;52833;45.112;39.556;2022-08-20T07:09:59;19.85;;;9.20;;
66052;SDS011;52833;45.112;39.556;2022-08-20T07:12:27;15.88;;;8.20;;
66052;SDS011;52833;45.112;39.556;2022-08-20T07:14:54;15.68;;;7.57;;
66052;SDS011;52833;45.112;39.556;2022-08-20T07:17:21;24.60;;;8.63;;
66052;SDS011;52833;45.112;39.556;2022-08-20T07:19:47;16.63;;;8.25;;
66052;SDS011;52833;45.112;39.556;2022-08-20T07:22:14;14.73;;;8.85;;
66052;SDS011;52833;45.112;39.556;2022-08-20T07:24:40;14.20;;;8.52;;
66052;SDS011;52833;45.112;39.556;2022-08-20T07:27:07;21.10;;;8.80;;
66052;SDS011;52833;45.112;39.556;2022-08-20T07:29:34;27.27;;;9.02;;
66052;SDS011;52833;45.112;39.556;2022-08-20T07:32:19;18.95;;;7.82;;
66052;SDS011;52833;45.112;39.556;2022-08-20T07:35:11;12.57;;;7.10;;
66052;SDS011;52833;45.112;39.556;2022-08-20T07:37:41;19.73;;;9.35;;
66052;SDS011;52833;45.112;39.556;2022-08-20T07:40:13;15.25;;;8.32;;
66052;SDS011;52833;45.112;39.556;2022-08-20T07:42:43;19.17;;;6.50;;
66052;SDS011;52833;45.112;39.556;2022-08-20T07:45:10;12.52;;;7.43;;
66052;SDS011;52833;45.112;39.556;2022-08-20T07:47:39;11.48;;;7.35;;
66052;SDS011;52833;45.112;39.556;2022-08-20T07:50:08;11.32;;;4.90;;
66052;SDS011;52833;45.112;39.556;2022-08-20T07:52:38;20.83;;;8.43;;
66052;SDS011;52833;45.112;39.556;2022-08-20T07:55:05;12.50;;;6.70;;
66052;SDS011;52833;45.112;39.556;2022-08-20T07:57:35;23.88;;;7.25;;
66052;SDS011;52833;45.112;39.556;2022-08-20T08:00:03;13.55;;;7.63;;
66052;SDS011;52833;45.112;39.556;2022-08-20T08:05:02;16.38;;;7.22;;
66052;SDS011;52833;45.112;39.556;2022-08-20T08:07:31;17.65;;;6.45;;
66052;SDS011;52833;45.112;39.556;2022-08-20T08:10:00;13.13;;;7.63;;
66052;SDS011;52833;45.112;39.556;2022-08-20T08:12:40;12.60;;;6.65;;
66052;SDS011;52833;45.112;39.556;2022-08-20T08:15:10;19.10;;;6.35;;
66052;SDS011;52833;45.112;39.556;2022-08-20T08:17:40;12.88;;;6.03;;
66052;SDS011;52833;45.112;39.556;2022-08-20T08:20:09;10.68;;;5.72;;
66052;SDS011;52833;45.112;39.556;2022-08-20T08:22:39;8.55;;;5.25;;
66052;SDS011;52833;45.112;39.556;2022-08-20T08:25:10;10.50;;;5.70;;
66052;SDS011;52833;45.112;39.556;2022-08-20T08:27:38;13.30;;;5.68;;
66052;SDS011;52833;45.112;39.556;2022-08-20T08:30:06;8.48;;;4.78;;
66052;SDS011;52833;45.112;39.556;2022-08-20T08:32:37;12.82;;;6.45;;
66052;SDS011;52833;45.112;39.556;2022-08-20T08:35:24;12.30;;;5.95;;
66052;SDS011;52833;45.112;39.556;2022-08-20T08:37:51;9.95;;;5.50;;
66052;SDS011;52833;45.112;39.556;2022-08-20T08:40:21;12.00;;;5.55;;
66052;SDS011;52833;45.112;39.556;2022-08-20T08:42:50;13.77;;;5.50;;
66052;SDS011;52833;45.112;39.556;2022-08-20T08:45:23;12.38;;;7.15;;
66052;SDS011;52833;45.112;39.556;2022-08-20T08:47:58;13.00;;;6.32;;
66052;SDS011;52833;45.112;39.556;2022-08-20T08:50:27;13.30;;;6.43;;
66052;SDS011;52833;45.112;39.556;2022-08-20T08:52:58;9.85;;;5.72;;
66052;SDS011;52833;45.112;39.556;2022-08-20T08:55:28;8.98;;;5.07;;
66052;SDS011;52833;45.112;39.556;2022-08-20T08:57:58;11.35;;;5.75;;
66052;SDS011;52833;45.112;39.556;2022-08-20T09:00:27;7.70;;;5.20;;
66052;SDS011;52833;45.112;39.556;2022-08-20T09:05:32;9.57;;;4.97;;
66052;SDS011;52833;45.112;39.556;2022-08-20T09:08:23;11.93;;;5.15;;
66052;SDS011;52833;45.112;39.556;2022-08-20T09:10:53;7.57;;;5.40;;
66052;SDS011;52833;45.112;39.556;2022-08-20T09:13:20;14.43;;;5.65;;
66052;SDS011;52833;45.112;39.556;2022-08-20T09:15:47;11.30;;;5.53;;
66052;SDS011;52833;45.112;39.556;2022-08-20T09:18:13;16.52;;;4.70;;
66052;SDS011;52833;45.112;39.556;2022-08-20T09:20:39;12.18;;;4.70;;
66052;SDS011;52833;45.112;39.556;2022-08-20T09:23:06;11.00;;;4.68;;
66052;SDS011;52833;45.112;39.556;2022-08-20T09:25:33;7.55;;;4.20;;
66052;SDS011;52833;45.112;39.556;2022-08-20T09:27:59;13.55;;;5.47;;
66052;SDS011;52833;45.112;39.556;2022-08-20T09:30:26;7.20;;;3.78;;
66052;SDS011;52833;45.112;39.556;2022-08-20T09:32:57;13.60;;;4.50;;
66052;SDS011;52833;45.112;39.556;2022-08-20T09:35:25;7.93;;;4.30;;
66052;SDS011;52833;45.112;39.556;2022-08-20T09:37:52;9.50;;;4.00;;
66052;SDS011;52833;45.112;39.556;2022-08-20T09:40:19;15.20;;;4.15;;
66052;SDS011;52833;45.112;39.556;2022-08-20T09:42:47;15.38;;;4.03;;
66052;SDS011;52833;45.112;39.556;2022-08-20T09:45:15;5.00;;;3.60;;
66052;SDS011;52833;45.112;39.556;2022-08-20T09:47:41;11.57;;;4.38;;
66052;SDS011;52833;45.112;39.556;2022-08-20T09:50:08;13.73;;;4.25;;
66052;SDS011;52833;45.112;39.556;2022-08-20T09:52:36;10.05;;;3.28;;
66052;SDS011;52833;45.112;39.556;2022-08-20T09:55:09;10.60;;;4.18;;
66052;SDS011;52833;45.112;39.556;2022-08-20T09:58:01;6.65;;;3.38;;
66052;SDS011;52833;45.112;39.556;2022-08-20T10:00:31;8.48;;;3.47;;
66052;SDS011;52833;45.112;39.556;2022-08-20T10:02:57;11.25;;;3.17;;
66052;SDS011;52833;45.112;39.556;2022-08-20T10:05:25;11.73;;;3.50;;
66052;SDS011;52833;45.112;39.556;2022-08-20T10:07:52;12.75;;;3.40;;
66052;SDS011;52833;45.112;39.556;2022-08-20T10:10:19;16.50;;;3.22;;
66052;SDS011;52833;45.112;39.556;2022-08-20T10:12:46;9.82;;;3.72;;
66052;SDS011;52833;45.112;39.556;2022-08-20T10:15:13;10.52;;;2.72;;
66052;SDS011;52833;45.112;39.556;2022-08-20T10:17:40;13.05;;;3.78;;
66052;SDS011;52833;45.112;39.556;2022-08-20T10:20:09;12.55;;;3.47;;
66052;SDS011;52833;45.112;39.556;2022-08-20T10:22:36;8.50;;;3.05;;
66052;SDS011;52833;45.112;39.556;2022-08-20T10:25:04;9.25;;;2.72;;
66052;SDS011;52833;45.112;39.556;2022-08-20T10:27:31;6.55;;;2.97;;
66052;SDS011;52833;45.112;39.556;2022-08-20T10:29:58;6.68;;;2.70;;
66052;SDS011;52833;45.112;39.556;2022-08-20T10:32:25;8.82;;;3.00;;
66052;SDS011;52833;45.112;39.556;2022-08-20T10:34:51;8.65;;;3.35;;
66052;SDS011;52833;45.112;39.556;2022-08-20T10:37:21;7.25;;;3.13;;
66052;SDS011;52833;45.112;39.556;2022-08-20T10:39:49;9.32;;;2.83;;
66052;SDS011;52833;45.112;39.556;2022-08-20T10:42:16;9.05;;;3.25;;
66052;SDS011;52833;45.112;39.556;2022-08-20T10:44:43;9.10;;;3.10;;
66052;SDS011;52833;45.112;39.556;2022-08-20T10:47:12;9.23;;;2.80;;
66052;SDS011;52833;45.112;39.556;2022-08-20T10:49:48;5.20;;;2.65;;
66052;SDS011;52833;45.112;39.556;2022-08-20T10:52:17;9.45;;;2.95;;
66052;SDS011;52833;45.112;39.556;2022-08-20T10:54:44;8.20;;;3.00;;
66052;SDS011;52833;45.112;39.556;2022-08-20T10:57:18;12.48;;;3.95;;
66052;SDS011;52833;45.112;39.556;2022-08-20T10:59:53;10.88;;;3.63;;
66052;SDS011;52833;45.112;39.556;2022-08-20T11:02:22;6.65;;;3.00;;
66052;SDS011;52833;45.112;39.556;2022-08-20T11:04:49;8.90;;;3.08;;
66052;SDS011;52833;45.112;39.556;2022-08-20T11:09:54;13.30;;;3.42;;
66052;SDS011;52833;45.112;39.556;2022-08-20T11:12:22;13.23;;;3.03;;
66052;SDS011;52833;45.112;39.556;2022-08-20T11:14:49;12.02;;;2.88;;
66052;SDS011;52833;45.112;39.556;2022-08-20T11:19:46;8.52;;;2.85;;
66052;SDS011;52833;45.112;39.556;2022-08-20T11:22:13;11.32;;;3.67;;
66052;SDS011;52833;45.112;39.556;2022-08-20T11:24:40;10.02;;;3.35;;
66052;SDS011;52833;45.112;39.556;2022-08-20T11:27:07;19.80;;;3.58;;
66052;SDS011;52833;45.112;39.556;2022-08-20T11:29:36;11.20;;;3.28;;
66052;SDS011;52833;45.112;39.556;2022-08-20T11:32:04;13.63;;;3.63;;
66052;SDS011;52833;45.112;39.556;2022-08-20T11:34:31;11.30;;;3.65;;
66052;SDS011;52833;45.112;39.556;2022-08-20T11:36:57;6.47;;;2.92;;
66052;SDS011;52833;45.112;39.556;2022-08-20T11:39:24;8.50;;;3.13;;
66052;SDS011;52833;45.112;39.556;2022-08-20T11:41:52;8.02;;;2.88;;
66052;SDS011;52833;45.112;39.556;2022-08-20T11:44:18;12.27;;;3.60;;
66052;SDS011;52833;45.112;39.556;2022-08-20T11:46:46;8.27;;;3.03;;
66052;SDS011;52833;45.112;39.556;2022-08-20T11:49:12;14.40;;;3.67;;
66052;SDS011;52833;45.112;39.556;2022-08-20T11:51:39;8.57;;;3.35;;
66052;SDS011;52833;45.112;39.556;2022-08-20T11:54:05;10.13;;;3.40;;
66052;SDS011;52833;45.112;39.556;2022-08-20T11:56:32;25.35;;;3.80;;
66052;SDS011;52833;45.112;39.556;2022-08-20T11:58:58;10.18;;;2.90;;
66052;SDS011;52833;45.112;39.556;2022-08-20T12:01:25;8.30;;;3.45;;
66052;SDS011;52833;45.112;39.556;2022-08-20T12:03:51;10.45;;;3.60;;
66052;SDS011;52833;45.112;39.556;2022-08-20T12:06:18;10.00;;;3.30;;
66052;SDS011;52833;45.112;39.556;2022-08-20T12:08:45;10.52;;;3.65;;
66052;SDS011;52833;45.112;39.556;2022-08-20T12:11:12;5.55;;;2.88;;
66052;SDS011;52833;45.112;39.556;2022-08-20T12:13:38;8.32;;;3.20;;
66052;SDS011;52833;45.112;39.556;2022-08-20T12:16:05;7.15;;;2.78;;
66052;SDS011;52833;45.112;39.556;2022-08-20T12:18:32;16.88;;;4.03;;
66052;SDS011;52833;45.112;39.556;2022-08-20T12:20:59;8.15;;;3.42;;
66052;SDS011;52833;45.112;39.556;2022-08-20T12:23:29;13.68;;;4.30;;
66052;SDS011;52833;45.112;39.556;2022-08-20T12:25:55;9.82;;;3.58;;
66052;SDS011;52833;45.112;39.556;2022-08-20T12:28:22;10.70;;;3.42;;
66052;SDS011;52833;45.112;39.556;2022-08-20T12:30:48;14.27;;;3.47;;
66052;SDS011;52833;45.112;39.556;2022-08-20T12:33:15;15.77;;;5.20;;
66052;SDS011;52833;45.112;39.556;2022-08-20T12:35:41;14.32;;;6.32;;
66052;SDS011;52833;45.112;39.556;2022-08-20T12:38:08;18.48;;;5.15;;
66052;SDS011;52833;45.112;39.556;2022-08-20T12:40:35;12.20;;;3.38;;
66052;SDS011;52833;45.112;39.556;2022-08-20T12:43:02;14.32;;;4.72;;
66052;SDS011;52833;45.112;39.556;2022-08-20T12:45:30;15.90;;;5.00;;
66052;SDS011;52833;45.112;39.556;2022-08-20T12:48:02;10.20;;;4.03;;
66052;SDS011;52833;45.112;39.556;2022-08-20T12:50:34;9.73;;;3.88;;
66052;SDS011;52833;45.112;39.556;2022-08-20T12:53:01;7.53;;;2.83;;
66052;SDS011;52833;45.112;39.556;2022-08-20T12:55:29;15.75;;;4.30;;
66052;SDS011;52833;45.112;39.556;2022-08-20T12:57:58;16.95;;;3.97;;
66052;SDS011;52833;45.112;39.556;2022-08-20T13:00:30;8.93;;;3.40;;
66052;SDS011;52833;45.112;39.556;2022-08-20T13:03:00;10.82;;;3.58;;
66052;SDS011;52833;45.112;39.556;2022-08-20T13:05:29;16.60;;;4.28;;
66052;SDS011;52833;45.112;39.556;2022-08-20T13:10:52;9.05;;;3.10;;
66052;SDS011;52833;45.112;39.556;2022-08-20T13:13:19;9.48;;;3.45;;
66052;SDS011;52833;45.112;39.556;2022-08-20T13:15:46;14.48;;;4.25;;
66052;SDS011;52833;45.112;39.556;2022-08-20T13:18:15;14.52;;;3.60;;
66052;SDS011;52833;45.112;39.556;2022-08-20T13:20:42;14.10;;;3.53;;
66052;SDS011;52833;45.112;39.556;2022-08-20T13:23:10;8.52;;;3.15;;
66052;SDS011;52833;45.112;39.556;2022-08-20T13:25:36;28.02;;;4.03;;
66052;SDS011;52833;45.112;39.556;2022-08-20T13:28:03;12.65;;;3.83;;
66052;SDS011;52833;45.112;39.556;2022-08-20T13:30:31;10.20;;;3.47;;
66052;SDS011;52833;45.112;39.556;2022-08-20T13:32:59;22.10;;;4.82;;
66052;SDS011;52833;45.112;39.556;2022-08-20T13:35:27;26.58;;;4.85;;
66052;SDS011;52833;45.112;39.556;2022-08-20T13:37:53;14.82;;;4.20;;
66052;SDS011;52833;45.112;39.556;2022-08-20T13:40:20;10.95;;;3.17;;
66052;SDS011;52833;45.112;39.556;2022-08-20T13:42:47;12.98;;;4.07;;
66052;SDS011;52833;45.112;39.556;2022-08-20T13:45:14;17.55;;;4.00;;
66052;SDS011;52833;45.112;39.556;2022-08-20T13:47:41;14.07;;;3.50;;
66052;SDS011;52833;45.112;39.556;2022-08-20T13:50:12;13.65;;;3.55;;
66052;SDS011;52833;45.112;39.556;2022-08-20T13:52:43;14.38;;;3.85;;
66052;SDS011;52833;45.112;39.556;2022-08-20T13:55:11;14.88;;;4.57;;
66052;SDS011;52833;45.112;39.556;2022-08-20T13:57:40;8.35;;;4.68;;
66052;SDS011;52833;45.112;39.556;2022-08-20T14:00:08;10.43;;;4.50;;
66052;SDS011;52833;45.112;39.556;2022-08-20T14:02:39;34.85;;;13.07;;
66052;SDS011;52833;45.112;39.556;2022-08-20T14:05:07;16.83;;;6.72;;
66052;SDS011;52833;45.112;39.556;2022-08-20T14:07:35;22.30;;;12.52;;
66052;SDS011;52833;45.112;39.556;2022-08-20T14:10:09;21.38;;;7.35;;
66052;SDS011;52833;45.112;39.556;2022-08-20T14:12:40;12.43;;;4.57;;
66052;SDS011;52833;45.112;39.556;2022-08-20T14:15:06;15.73;;;4.72;;
66052;SDS011;52833;45.112;39.556;2022-08-20T14:17:35;18.25;;;5.22;;
66052;SDS011;52833;45.112;39.556;2022-08-20T14:20:06;15.15;;;4.85;;
66052;SDS011;52833;45.112;39.556;2022-08-20T14:22:34;22.90;;;4.18;;
66052;SDS011;52833;45.112;39.556;2022-08-20T14:25:01;28.20;;;4.43;;
66052;SDS011;52833;45.112;39.556;2022-08-20T14:27:29;25.55;;;5.45;;
66052;SDS011;52833;45.112;39.556;2022-08-20T14:29:58;13.52;;;4.35;;
66052;SDS011;52833;45.112;39.556;2022-08-20T14:32:26;28.98;;;5.00;;
66052;SDS011;52833;45.112;39.556;2022-08-20T14:34:53;22.23;;;4.60;;
66052;SDS011;52833;45.112;39.556;2022-08-20T14:37:25;26.52;;;5.50;;
66052;SDS011;52833;45.112;39.556;2022-08-20T14:39:54;33.53;;;5.93;;
66052;SDS011;52833;45.112;39.556;2022-08-20T14:42:23;12.15;;;4.57;;
66052;SDS011;52833;45.112;39.556;2022-08-20T14:44:51;52.55;;;7.28;;
66052;SDS011;52833;45.112;39.556;2022-08-20T14:47:19;109.72;;;8.48;;
66052;SDS011;52833;45.112;39.556;2022-08-20T14:49:49;68.10;;;10.57;;
66052;SDS011;52833;45.112;39.556;2022-08-20T14:52:17;107.30;;;11.95;;
66052;SDS011;52833;45.112;39.556;2022-08-20T14:54:45;145.68;;;13.90;;
66052;SDS011;52833;45.112;39.556;2022-08-20T14:57:13;33.10;;;5.47;;
66052;SDS011;52833;45.112;39.556;2022-08-20T14:59:40;76.72;;;9.15;;